Time;durP1;ratioP1;P1;durP2;ratioP2;P2;SDS_P1;SDS_P2;PMS_P1;PMS_P2;Temp;Humidity;BMP_temperature;BMP_pressure;BME280_temperature;BME280_humidity;BME280_pressure;Samples;Min_cycle;Max_cycle;Signal;HPM_P1;HPM_P2
2024/02/25 00:00:34;;;;;;;0.93;0.70;;;2.00;98.20;;;;;;5020023;28;20131;-67
2024/02/25 00:03:00;;;;;;;0.60;0.60;;;2.00;98.10;;;;;;5026661;28;20037;-67
2024/02/25 00:05:25;;;;;;;0.77;0.52;;;2.00;98.00;;;;;;5028370;28;20531;-67
2024/02/25 00:07:51;;;;;;;1.23;0.80;;;1.90;97.90;;;;;;5024398;28;20104;-67
2024/02/25 00:10:16;;;;;;;0.40;0.40;;;2.00;98.10;;;;;;5024339;28;20022;-67
2024/02/25 00:12:42;;;;;;;0.70;0.70;;;1.90;97.90;;;;;;5023617;28;20037;-67
2024/02/25 00:15:08;;;;;;;1.13;0.73;;;1.90;97.90;;;;;;5024781;28;20743;-67
2024/02/25 00:17:33;;;;;;;0.52;0.47;;;2.00;98.00;;;;;;5033788;28;20029;-67
2024/02/25 00:19:59;;;;;;;0.80;0.70;;;1.90;97.90;;;;;;5023054;28;20026;-67
2024/02/25 00:22:24;;;;;;;1.10;0.70;;;1.90;97.70;;;;;;5025007;28;20049;-67
2024/02/25 00:24:50;;;;;;;0.60;0.50;;;1.90;97.80;;;;;;5021940;28;20026;-67
2024/02/25 00:27:16;;;;;;;0.47;0.47;;;1.90;97.80;;;;;;5023369;28;20302;-67
2024/02/25 00:29:41;;;;;;;0.98;0.80;;;1.90;97.80;;;;;;5020691;28;20033;-67
2024/02/25 00:32:07;;;;;;;1.38;1.02;;;1.90;97.70;;;;;;5029257;28;20030;-67
2024/02/25 00:34:32;;;;;;;1.67;0.73;;;1.90;97.70;;;;;;5022755;28;20044;-67
2024/02/25 00:36:58;;;;;;;1.00;0.88;;;1.90;97.60;;;;;;5023957;28;20051;-67
2024/02/25 00:39:24;;;;;;;3.13;0.80;;;1.80;97.60;;;;;;5027014;28;20029;-67
2024/02/25 00:41:52;;;;;;;0.80;0.73;;;1.80;97.60;;;;;;5024221;28;20157;-67
2024/02/25 00:44:18;;;;;;;1.15;0.82;;;1.80;97.70;;;;;;5024008;28;20036;-67
2024/02/25 00:46:46;;;;;;;2.97;0.73;;;1.90;97.60;;;;;;5028122;28;20486;-67
2024/02/25 00:49:12;;;;;;;0.85;0.68;;;1.80;97.50;;;;;;5026307;28;20110;-67
2024/02/25 00:51:37;;;;;;;1.40;0.65;;;1.90;97.50;;;;;;5026893;28;20103;-67
2024/02/25 00:54:04;;;;;;;1.15;0.82;;;1.90;97.40;;;;;;5023644;28;20436;-67
2024/02/25 00:56:29;;;;;;;0.63;0.63;;;1.80;97.30;;;;;;5028504;28;20086;-67
2024/02/25 00:58:55;;;;;;;0.95;0.60;;;1.90;97.40;;;;;;5024069;28;20196;-67
2024/02/25 01:01:20;;;;;;;0.45;0.43;;;1.80;97.20;;;;;;5026055;28;20072;-67
2024/02/25 01:03:46;;;;;;;1.85;0.85;;;2.10;97.10;;;;;;5027572;28;20025;-68
2024/02/25 01:06:11;;;;;;;1.23;0.70;;;2.00;96.70;;;;;;5026235;28;20187;-68
2024/02/25 01:08:39;;;;;;;0.93;0.50;;;2.00;96.90;;;;;;5023457;28;20025;-67
2024/02/25 01:11:08;;;;;;;2.70;0.75;;;1.90;96.60;;;;;;5025171;28;20029;-67
2024/02/25 01:13:34;;;;;;;1.83;0.60;;;1.90;96.60;;;;;;5026698;28;20439;-67
2024/02/25 01:16:03;;;;;;;1.63;0.80;;;1.80;96.70;;;;;;5023535;28;20576;-67
2024/02/25 01:18:30;;;;;;;1.38;0.60;;;1.80;96.70;;;;;;5029667;28;20036;-67
2024/02/25 01:20:56;;;;;;;2.25;0.85;;;1.80;96.70;;;;;;5030410;28;20072;-67
2024/02/25 01:23:21;;;;;;;0.90;0.70;;;1.90;96.70;;;;;;5031685;28;20060;-67
2024/02/25 01:25:46;;;;;;;1.02;0.68;;;1.80;96.50;;;;;;5032119;28;20087;-67
2024/02/25 01:28:12;;;;;;;1.42;0.88;;;1.80;96.60;;;;;;5031058;28;20259;-67
2024/02/25 01:30:37;;;;;;;0.70;0.70;;;1.80;96.70;;;;;;5025023;28;20044;-67
2024/02/25 01:33:03;;;;;;;0.75;0.65;;;1.80;96.80;;;;;;5040400;28;20108;-67
2024/02/25 01:35:30;;;;;;;1.25;0.70;;;1.80;96.70;;;;;;5027410;28;20045;-67
2024/02/25 01:37:55;;;;;;;1.48;0.65;;;1.80;96.80;;;;;;5029087;28;20207;-67
2024/02/25 01:40:21;;;;;;;1.27;0.60;;;1.90;96.60;;;;;;5031313;28;20553;-67
2024/02/25 01:42:46;;;;;;;1.98;0.95;;;1.80;96.60;;;;;;5037516;28;20037;-67
2024/02/25 01:45:12;;;;;;;0.50;0.50;;;1.80;96.70;;;;;;5022942;28;20045;-67
2024/02/25 01:47:37;;;;;;;1.83;0.90;;;1.80;96.60;;;;;;5030972;28;20451;-67
2024/02/25 01:50:04;;;;;;;0.73;0.73;;;1.80;96.60;;;;;;5029898;28;20029;-67
2024/02/25 01:52:30;;;;;;;1.10;0.80;;;1.80;96.80;;;;;;5028610;28;20033;-67
2024/02/25 01:54:56;;;;;;;1.85;0.90;;;1.70;96.80;;;;;;5027576;28;20053;-67
2024/02/25 01:57:22;;;;;;;0.98;0.80;;;1.80;96.90;;;;;;5026231;28;20113;-67
2024/02/25 01:59:49;;;;;;;1.35;0.93;;;1.70;96.90;;;;;;5032395;28;20081;-67
2024/02/25 02:02:14;;;;;;;1.20;0.70;;;1.70;97.00;;;;;;5036615;28;20097;-67
2024/02/25 02:04:41;;;;;;;1.65;0.90;;;1.70;97.10;;;;;;5040705;28;20103;-67
2024/02/25 02:07:09;;;;;;;1.63;0.90;;;1.60;97.00;;;;;;5028841;28;20095;-67
2024/02/25 02:09:34;;;;;;;0.82;0.80;;;1.60;97.20;;;;;;5027429;28;20033;-67
2024/02/25 02:12:00;;;;;;;2.33;0.98;;;1.70;97.20;;;;;;5030548;28;20360;-67
2024/02/25 02:14:26;;;;;;;1.83;0.82;;;1.60;97.20;;;;;;5035662;28;20350;-67
2024/02/25 02:16:52;;;;;;;1.95;1.10;;;1.70;97.00;;;;;;5039378;28;20120;-67
2024/02/25 02:19:18;;;;;;;1.17;0.80;;;1.70;96.90;;;;;;5029433;28;20464;-67
2024/02/25 02:21:43;;;;;;;1.83;1.20;;;1.70;96.70;;;;;;5032338;28;20037;-67
2024/02/25 02:24:09;;;;;;;4.25;1.02;;;1.70;96.80;;;;;;5028029;28;20101;-67
2024/02/25 02:26:34;;;;;;;1.98;0.80;;;1.70;96.80;;;;;;5037596;28;20033;-67
2024/02/25 02:29:00;;;;;;;2.58;0.70;;;1.60;96.80;;;;;;5028876;28;20109;-67
2024/02/25 02:31:25;;;;;;;2.97;1.02;;;1.60;96.90;;;;;;5028144;28;20419;-68
2024/02/25 02:33:52;;;;;;;0.60;0.60;;;1.60;97.00;;;;;;5036202;28;20057;-67
2024/02/25 02:36:18;;;;;;;1.27;0.80;;;1.60;96.90;;;;;;5037256;28;20060;-67
2024/02/25 02:38:43;;;;;;;0.80;0.65;;;1.60;96.90;;;;;;5034902;28;20451;-67
2024/02/25 02:41:10;;;;;;;0.98;0.60;;;1.60;96.80;;;;;;5033736;28;20033;-68
2024/02/25 02:43:36;;;;;;;1.42;0.88;;;1.60;96.70;;;;;;5041042;28;20112;-67
2024/02/25 02:46:02;;;;;;;0.90;0.80;;;1.60;96.60;;;;;;5035963;28;20416;-68
2024/02/25 02:48:27;;;;;;;0.63;0.57;;;1.60;96.40;;;;;;5037072;28;20079;-67
2024/02/25 02:50:53;;;;;;;1.13;0.60;;;1.60;96.50;;;;;;5033863;28;20069;-67
2024/02/25 02:53:18;;;;;;;1.13;0.60;;;1.60;96.30;;;;;;5026923;28;20051;-67
2024/02/25 02:55:45;;;;;;;0.95;0.65;;;1.60;96.30;;;;;;5028859;28;20034;-67
2024/02/25 02:58:11;;;;;;;0.93;0.93;;;1.60;96.40;;;;;;5029883;28;20060;-67
2024/02/25 03:00:36;;;;;;;3.75;0.90;;;1.60;96.40;;;;;;5026545;28;20427;-67
2024/02/25 03:03:02;;;;;;;1.77;0.80;;;1.60;96.30;;;;;;5028474;28;20518;-67
2024/02/25 03:05:28;;;;;;;0.80;0.65;;;1.60;96.30;;;;;;5026789;28;20071;-67
2024/02/25 03:07:53;;;;;;;0.80;0.63;;;1.50;96.20;;;;;;5025578;28;20339;-67
2024/02/25 03:10:20;;;;;;;0.65;0.65;;;1.50;96.20;;;;;;5027238;28;20033;-67
2024/02/25 03:12:46;;;;;;;0.73;0.50;;;1.50;96.30;;;;;;5030373;28;20100;-67
2024/02/25 03:15:14;;;;;;;2.50;0.95;;;1.60;96.40;;;;;;5030393;28;20061;-67
2024/02/25 03:17:40;;;;;;;1.55;0.80;;;1.50;96.40;;;;;;5029537;28;20033;-67
2024/02/25 03:20:10;;;;;;;0.88;0.70;;;1.50;96.40;;;;;;5024871;28;20033;-68
2024/02/25 03:22:35;;;;;;;1.25;0.80;;;1.40;96.40;;;;;;5024832;28;20037;-67
2024/02/25 03:25:03;;;;;;;1.38;0.63;;;1.40;96.40;;;;;;5026529;28;20400;-67
2024/02/25 03:27:29;;;;;;;1.63;0.98;;;1.40;96.50;;;;;;5025212;28;20068;-67
2024/02/25 03:29:54;;;;;;;1.30;0.77;;;1.40;96.50;;;;;;5028206;28;20033;-67
2024/02/25 03:32:20;;;;;;;3.72;1.13;;;1.40;96.60;;;;;;5031504;28;20506;-67
2024/02/25 03:34:45;;;;;;;0.90;0.57;;;1.50;96.60;;;;;;5026678;28;20068;-67
2024/02/25 03:37:12;;;;;;;0.70;0.63;;;1.60;96.50;;;;;;5022968;28;20048;-67
2024/02/25 03:39:37;;;;;;;0.60;0.60;;;1.70;96.30;;;;;;5030811;28;20070;-67
2024/02/25 03:42:03;;;;;;;0.63;0.60;;;1.70;96.10;;;;;;5031560;28;20033;-67
2024/02/25 03:44:29;;;;;;;0.60;0.60;;;1.70;96.10;;;;;;5028914;28;20037;-67
2024/02/25 03:46:54;;;;;;;0.95;0.50;;;1.80;96.10;;;;;;5033168;28;20060;-67
2024/02/25 03:49:21;;;;;;;1.10;0.60;;;1.80;96.00;;;;;;5030293;28;20443;-67
2024/02/25 03:51:46;;;;;;;1.25;0.77;;;1.80;95.90;;;;;;5027164;28;20026;-67
2024/02/25 03:54:12;;;;;;;1.08;0.70;;;1.80;95.80;;;;;;5029013;28;20039;-67
2024/02/25 03:56:38;;;;;;;1.20;0.80;;;1.90;95.60;;;;;;5031587;28;20033;-67
2024/02/25 03:59:04;;;;;;;1.73;0.70;;;1.80;95.50;;;;;;5027145;28;20383;-67
2024/02/25 04:01:29;;;;;;;2.05;1.27;;;1.80;95.40;;;;;;5025925;28;20041;-67
2024/02/25 04:03:55;;;;;;;2.15;0.90;;;1.70;95.40;;;;;;5028933;28;20103;-67
2024/02/25 04:06:21;;;;;;;1.30;1.00;;;1.60;95.50;;;;;;5032197;28;20025;-67
2024/02/25 04:08:46;;;;;;;2.00;0.80;;;1.60;95.90;;;;;;5032284;28;20055;-67
2024/02/25 04:11:11;;;;;;;0.82;0.77;;;1.60;95.90;;;;;;5028810;28;21114;-67
2024/02/25 04:13:37;;;;;;;2.28;0.80;;;1.50;96.10;;;;;;5029448;28;20056;-67
2024/02/25 04:16:03;;;;;;;1.40;0.98;;;1.60;96.20;;;;;;5031415;28;20061;-67
2024/02/25 04:18:28;;;;;;;1.90;0.88;;;1.50;96.30;;;;;;5033189;28;20459;-67
2024/02/25 04:20:54;;;;;;;1.67;0.77;;;1.50;96.40;;;;;;5027250;28;20116;-67
2024/02/25 04:23:21;;;;;;;1.17;0.80;;;1.50;96.40;;;;;;5030362;28;20060;-67
2024/02/25 04:25:46;;;;;;;1.80;0.93;;;1.50;96.40;;;;;;5029404;28;20025;-67
2024/02/25 04:28:12;;;;;;;1.63;0.90;;;1.50;96.40;;;;;;5025604;28;20037;-67
2024/02/25 04:30:37;;;;;;;2.25;0.93;;;1.50;96.40;;;;;;5026391;28;20083;-67
2024/02/25 04:33:03;;;;;;;1.15;0.73;;;1.60;96.50;;;;;;5036052;28;20056;-67
2024/02/25 04:35:29;;;;;;;2.35;0.90;;;1.70;96.50;;;;;;5028040;28;20068;-67
2024/02/25 04:37:54;;;;;;;2.08;0.80;;;1.70;96.40;;;;;;5028274;28;20040;-67
2024/02/25 04:40:20;;;;;;;0.73;0.70;;;1.80;96.20;;;;;;5029994;28;20407;-67
2024/02/25 04:42:45;;;;;;;1.73;0.65;;;1.80;96.00;;;;;;5037366;28;20127;-67
2024/02/25 04:45:11;;;;;;;1.67;0.70;;;1.90;95.90;;;;;;5028568;28;20108;-67
2024/02/25 04:47:36;;;;;;;1.00;0.60;;;1.90;95.80;;;;;;5025133;28;20034;-67
2024/02/25 04:50:03;;;;;;;1.45;0.90;;;1.90;95.80;;;;;;5027822;28;20028;-67
2024/02/25 04:52:29;;;;;;;0.75;0.63;;;1.90;95.70;;;;;;5037196;28;20379;-67
2024/02/25 04:54:54;;;;;;;0.57;0.57;;;1.90;95.70;;;;;;5031052;28;20045;-67
2024/02/25 04:57:20;;;;;;;1.55;0.90;;;1.90;95.70;;;;;;5030865;28;20454;-67
2024/02/25 04:59:46;;;;;;;1.33;0.70;;;1.90;95.90;;;;;;5036162;28;20022;-68
2024/02/25 05:02:12;;;;;;;0.75;0.70;;;1.90;95.80;;;;;;5032143;28;20443;-67
2024/02/25 05:04:39;;;;;;;0.88;0.60;;;1.90;95.80;;;;;;5037585;28;20097;-67
2024/02/25 05:07:05;;;;;;;0.68;0.50;;;2.00;95.70;;;;;;5036223;28;20396;-67
2024/02/25 05:09:30;;;;;;;1.05;0.65;;;1.90;95.60;;;;;;5036182;28;20057;-67
2024/02/25 05:11:56;;;;;;;0.60;0.60;;;1.90;95.60;;;;;;5033955;28;20036;-67
2024/02/25 05:14:21;;;;;;;1.23;0.80;;;1.90;95.60;;;;;;5032594;28;20161;-67
2024/02/25 05:16:47;;;;;;;1.05;0.60;;;1.90;95.60;;;;;;5034112;28;20069;-67
2024/02/25 05:19:13;;;;;;;0.40;0.40;;;1.90;95.60;;;;;;5038899;28;20130;-67
2024/02/25 05:21:41;;;;;;;0.73;0.55;;;1.90;95.60;;;;;;5048359;28;20068;-67
2024/02/25 05:24:07;;;;;;;1.27;0.50;;;2.00;95.50;;;;;;5032915;28;20078;-67
2024/02/25 05:26:33;;;;;;;0.80;0.60;;;1.90;95.30;;;;;;5032888;28;20105;-67
2024/02/25 05:28:59;;;;;;;1.38;0.50;;;1.90;95.40;;;;;;5035079;28;20162;-65
2024/02/25 05:31:25;;;;;;;0.60;0.60;;;1.90;95.50;;;;;;5039071;28;20032;-65
2024/02/25 05:33:51;;;;;;;3.53;0.57;;;1.90;95.50;;;;;;5037004;28;20025;-66
2024/02/25 05:36:17;;;;;;;0.90;0.52;;;1.90;95.50;;;;;;5032062;28;20034;-65
2024/02/25 05:38:43;;;;;;;0.70;0.50;;;1.80;95.60;;;;;;5033207;28;20281;-65
2024/02/25 05:41:11;;;;;;;1.63;0.60;;;1.80;95.70;;;;;;5035722;28;20028;-65
2024/02/25 05:43:37;;;;;;;0.93;0.73;;;1.80;95.80;;;;;;5032997;28;20033;-65
2024/02/25 05:46:03;;;;;;;3.50;0.60;;;1.90;95.80;;;;;;5036371;28;20024;-65
2024/02/25 05:48:28;;;;;;;0.45;0.40;;;1.90;95.60;;;;;;5034909;28;20037;-65
2024/02/25 05:50:53;;;;;;;0.45;0.45;;;1.90;95.50;;;;;;5031452;28;20093;-65
2024/02/25 05:53:19;;;;;;;1.00;0.60;;;1.90;95.60;;;;;;5030001;28;20037;-65
2024/02/25 05:55:46;;;;;;;0.50;0.40;;;2.00;95.60;;;;;;5036651;28;20080;-66
2024/02/25 05:58:11;;;;;;;0.75;0.60;;;2.00;95.40;;;;;;5035903;28;20063;-65
2024/02/25 06:00:37;;;;;;;1.35;0.60;;;2.00;95.60;;;;;;5032331;28;20466;-65
2024/02/25 06:03:04;;;;;;;0.77;0.57;;;2.00;95.40;;;;;;5034189;28;20178;-66
2024/02/25 06:05:30;;;;;;;0.40;0.40;;;2.10;95.40;;;;;;5043261;28;20063;-65
2024/02/25 06:07:59;;;;;;;1.67;0.73;;;2.00;95.30;;;;;;5034087;28;20486;-65
2024/02/25 06:10:24;;;;;;;1.13;0.70;;;2.00;95.40;;;;;;5036502;28;20060;-66
2024/02/25 06:12:50;;;;;;;0.57;0.57;;;2.10;95.30;;;;;;5025577;28;20033;-65
2024/02/25 06:15:17;;;;;;;1.08;0.77;;;2.10;95.10;;;;;;5025342;28;20096;-65
2024/02/25 06:17:42;;;;;;;0.98;0.50;;;2.00;95.10;;;;;;5035085;28;20043;-65
2024/02/25 06:20:10;;;;;;;0.80;0.70;;;2.10;95.20;;;;;;5033127;28;20060;-66
2024/02/25 06:22:36;;;;;;;0.50;0.50;;;2.20;94.70;;;;;;5037330;28;20099;-65
2024/02/25 06:25:03;;;;;;;0.35;0.28;;;2.30;94.60;;;;;;5029113;28;20025;-66
2024/02/25 06:27:28;;;;;;;0.63;0.40;;;2.30;94.30;;;;;;5031375;28;20029;-66
2024/02/25 06:29:54;;;;;;;1.10;0.63;;;2.40;93.90;;;;;;5029421;28;20215;-65
2024/02/25 06:32:19;;;;;;;0.47;0.40;;;2.60;93.60;;;;;;5028621;28;20021;-65
2024/02/25 06:34:45;;;;;;;1.08;0.68;;;2.50;93.50;;;;;;5028129;28;20085;-65
2024/02/25 06:37:10;;;;;;;0.63;0.45;;;2.60;93.60;;;;;;5028118;28;20061;-65
2024/02/25 06:39:36;;;;;;;2.28;0.47;;;2.60;93.40;;;;;;5029042;28;20032;-65
2024/02/25 06:42:01;;;;;;;1.75;0.50;;;2.60;93.10;;;;;;5032935;28;20061;-65
2024/02/25 06:44:27;;;;;;;0.70;0.57;;;2.70;93.10;;;;;;5028113;28;20044;-65
2024/02/25 06:46:52;;;;;;;0.47;0.45;;;2.80;92.90;;;;;;5041082;28;20488;-65
2024/02/25 06:49:17;;;;;;;0.75;0.50;;;2.90;92.80;;;;;;5028082;28;20037;-65
2024/02/25 06:51:43;;;;;;;0.68;0.50;;;2.90;92.50;;;;;;5032866;28;20166;-65
2024/02/25 06:54:08;;;;;;;0.85;0.43;;;2.90;92.80;;;;;;5030946;28;20541;-65
2024/02/25 06:56:34;;;;;;;1.17;0.50;;;3.00;92.80;;;;;;5026810;28;20045;-65
2024/02/25 06:58:59;;;;;;;0.77;0.70;;;3.00;92.40;;;;;;5027192;28;20025;-65
2024/02/25 07:01:25;;;;;;;1.02;0.40;;;3.10;92.20;;;;;;5029488;28;20463;-65
2024/02/25 07:03:50;;;;;;;1.08;0.50;;;3.20;91.90;;;;;;5023153;28;20037;-65
2024/02/25 07:06:16;;;;;;;0.55;0.50;;;3.20;92.00;;;;;;5025360;28;20037;-66
2024/02/25 07:08:41;;;;;;;0.60;0.57;;;3.20;92.10;;;;;;5024709;28;20368;-65
2024/02/25 07:11:18;;;;;;;0.77;0.50;;;3.30;92.10;;;;;;5026734;28;20108;-65
2024/02/25 07:13:45;;;;;;;0.57;0.50;;;3.30;92.50;;;;;;5026479;28;20059;-65
2024/02/25 07:16:11;;;;;;;0.50;0.50;;;3.30;92.80;;;;;;5021587;28;20379;-65
2024/02/25 07:18:36;;;;;;;0.28;0.28;;;3.40;93.10;;;;;;5025254;28;20030;-66
2024/02/25 07:21:02;;;;;;;0.77;0.50;;;3.40;93.50;;;;;;5024647;28;20170;-66
2024/02/25 07:23:28;;;;;;;0.55;0.35;;;3.40;93.70;;;;;;5046739;28;20392;-65
2024/02/25 07:25:53;;;;;;;1.02;0.52;;;3.50;93.40;;;;;;5030249;28;20071;-65
2024/02/25 07:28:19;;;;;;;0.28;0.28;;;3.60;93.70;;;;;;5025248;28;20025;-66
2024/02/25 07:30:44;;;;;;;0.90;0.60;;;3.60;93.20;;;;;;5028879;28;20103;-65
2024/02/25 07:33:10;;;;;;;0.80;0.43;;;3.70;93.10;;;;;;5022939;28;20040;-65
2024/02/25 07:35:36;;;;;;;0.40;0.40;;;3.70;93.40;;;;;;5020011;28;20041;-66
2024/02/25 07:38:02;;;;;;;0.70;0.40;;;3.70;93.60;;;;;;5028176;28;20041;-65
2024/02/25 07:40:28;;;;;;;0.50;0.45;;;3.70;93.60;;;;;;5027264;28;20038;-65
2024/02/25 07:42:53;;;;;;;0.30;0.30;;;3.70;93.60;;;;;;5029082;28;20070;-65
2024/02/25 07:45:18;;;;;;;0.68;0.43;;;3.80;93.80;;;;;;5025583;28;20025;-65
2024/02/25 07:47:44;;;;;;;1.25;0.63;;;3.80;93.90;;;;;;5025936;28;20107;-65
2024/02/25 07:50:10;;;;;;;0.30;0.30;;;3.80;94.00;;;;;;5026711;28;20486;-65
2024/02/25 07:52:35;;;;;;;0.75;0.60;;;3.90;94.10;;;;;;5027416;28;20112;-65
2024/02/25 07:55:01;;;;;;;1.08;0.40;;;3.90;94.10;;;;;;5024352;28;20048;-66
2024/02/25 07:57:27;;;;;;;0.60;0.50;;;4.00;93.80;;;;;;5027764;28;20029;-66
2024/02/25 07:59:53;;;;;;;0.52;0.50;;;4.10;93.40;;;;;;5024638;28;20052;-67
2024/02/25 08:02:18;;;;;;;1.52;0.30;;;4.20;93.30;;;;;;5022247;28;20037;-66
2024/02/25 08:04:44;;;;;;;0.40;0.40;;;4.20;93.00;;;;;;5021127;28;20138;-66
2024/02/25 08:07:09;;;;;;;0.68;0.40;;;4.20;92.10;;;;;;5020922;28;20029;-67
2024/02/25 08:09:35;;;;;;;0.32;0.32;;;4.30;92.30;;;;;;5023782;28;20029;-66
2024/02/25 08:12:01;;;;;;;2.17;0.70;;;4.30;91.80;;;;;;5023215;28;20076;-64
2024/02/25 08:14:26;;;;;;;2.28;0.40;;;4.20;91.60;;;;;;5024678;28;20033;-64
2024/02/25 08:16:52;;;;;;;0.90;0.52;;;4.30;91.90;;;;;;5025220;28;20152;-66
2024/02/25 08:19:17;;;;;;;0.65;0.50;;;4.30;91.70;;;;;;5025134;28;20212;-65
2024/02/25 08:21:43;;;;;;;0.73;0.50;;;4.30;91.20;;;;;;5027135;28;20030;-65
2024/02/25 08:24:08;;;;;;;0.63;0.40;;;4.30;91.00;;;;;;5027121;28;20055;-65
2024/02/25 08:26:34;;;;;;;0.40;0.40;;;4.30;91.20;;;;;;5027157;28;20634;-65
2024/02/25 08:29:00;;;;;;;1.48;0.52;;;4.40;91.10;;;;;;5023670;28;20128;-65
2024/02/25 08:31:26;;;;;;;0.32;0.30;;;4.40;90.40;;;;;;5026211;28;20037;-65
2024/02/25 08:33:51;;;;;;;0.40;0.40;;;4.50;90.10;;;;;;5018291;28;20133;-66
2024/02/25 08:36:17;;;;;;;0.40;0.40;;;4.50;89.80;;;;;;5019795;28;20148;-66
2024/02/25 08:38:43;;;;;;;0.40;0.30;;;4.50;89.60;;;;;;5023930;28;20147;-66
2024/02/25 08:41:08;;;;;;;0.40;0.40;;;4.50;90.00;;;;;;5024758;28;20040;-65
2024/02/25 08:43:34;;;;;;;0.40;0.40;;;4.60;89.70;;;;;;5021791;28;20362;-66
2024/02/25 08:45:59;;;;;;;0.50;0.50;;;4.60;90.10;;;;;;5022335;28;20025;-67
2024/02/25 08:48:25;;;;;;;1.50;0.60;;;4.60;89.50;;;;;;5023271;28;20033;-66
2024/02/25 08:50:51;;;;;;;0.55;0.55;;;4.70;89.60;;;;;;5022016;28;20033;-67
2024/02/25 08:53:16;;;;;;;0.80;0.40;;;4.70;89.10;;;;;;5019954;28;20080;-66
2024/02/25 08:55:42;;;;;;;0.40;0.35;;;4.70;89.20;;;;;;5016650;28;20038;-67
2024/02/25 08:58:07;;;;;;;0.20;0.20;;;4.70;88.60;;;;;;5018463;28;20381;-66
2024/02/25 09:00:33;;;;;;;0.90;0.60;;;4.70;88.70;;;;;;5020602;28;20441;-66
2024/02/25 09:03:00;;;;;;;0.98;0.60;;;4.70;88.50;;;;;;5023873;28;20037;-65
2024/02/25 09:05:26;;;;;;;0.45;0.45;;;4.80;88.40;;;;;;5024551;28;20176;-65
2024/02/25 09:07:53;;;;;;;0.75;0.52;;;4.90;88.80;;;;;;5022284;28;20075;-65
2024/02/25 09:10:19;;;;;;;1.48;0.55;;;5.00;88.90;;;;;;5023800;28;20029;-65
2024/02/25 09:12:47;;;;;;;0.30;0.30;;;5.20;88.70;;;;;;5020690;28;20132;-66
2024/02/25 09:15:19;;;;;;;0.50;0.50;;;5.50;88.50;;;;;;5020269;28;20060;-67
2024/02/25 09:17:45;;;;;;;0.95;0.40;;;5.60;87.20;;;;;;5024471;28;20042;-66
2024/02/25 09:20:10;;;;;;;0.63;0.40;;;5.70;86.80;;;;;;5025904;28;20091;-65
2024/02/25 09:22:36;;;;;;;1.23;0.40;;;5.70;86.90;;;;;;5027909;28;20037;-66
2024/02/25 09:25:01;;;;;;;0.75;0.30;;;5.90;87.10;;;;;;5029394;28;20060;-66
2024/02/25 09:27:27;;;;;;;0.55;0.40;;;6.00;86.50;;;;;;5025894;28;20477;-65
2024/02/25 09:29:52;;;;;;;0.70;0.45;;;6.10;86.20;;;;;;5023981;28;20045;-66
2024/02/25 09:32:18;;;;;;;0.80;0.40;;;6.20;85.40;;;;;;5015749;28;20351;-65
2024/02/25 09:34:44;;;;;;;0.68;0.50;;;6.30;85.00;;;;;;5022485;28;20041;-66
2024/02/25 09:37:10;;;;;;;1.15;0.60;;;6.40;84.80;;;;;;5019542;28;20030;-66
2024/02/25 09:39:36;;;;;;;1.20;0.50;;;6.50;84.40;;;;;;5020006;28;20033;-65
2024/02/25 09:42:06;;;;;;;0.57;0.40;;;6.70;84.50;;;;;;5025549;28;20026;-66
2024/02/25 09:44:33;;;;;;;0.43;0.43;;;7.00;84.40;;;;;;5025743;28;20476;-67
2024/02/25 09:46:59;;;;;;;1.25;0.55;;;7.00;83.00;;;;;;5024435;28;20793;-68
2024/02/25 09:49:27;;;;;;;0.88;0.40;;;7.10;83.60;;;;;;5029322;28;20411;-69
2024/02/25 09:51:53;;;;;;;0.40;0.40;;;6.90;82.70;;;;;;5026832;28;20375;-68
2024/02/25 09:54:20;;;;;;;0.40;0.40;;;6.90;83.40;;;;;;5029928;28;20038;-68
2024/02/25 09:56:49;;;;;;;0.57;0.55;;;6.90;82.80;;;;;;5027135;28;20147;-69
2024/02/25 09:59:15;;;;;;;1.30;0.60;;;7.10;83.50;;;;;;5037935;28;20026;-68
2024/02/25 10:01:45;;;;;;;1.48;0.40;;;7.10;83.50;;;;;;5026345;28;20131;-67
2024/02/25 10:04:11;;;;;;;0.63;0.40;;;7.00;82.50;;;;;;5023621;28;20021;-67
2024/02/25 10:06:39;;;;;;;1.15;0.45;;;6.90;82.00;;;;;;5028719;28;20515;-68
2024/02/25 10:09:08;;;;;;;1.10;0.50;;;6.90;83.00;;;;;;5019643;28;20416;-67
2024/02/25 10:11:34;;;;;;;0.90;0.50;;;6.60;82.50;;;;;;5036910;28;20132;-67
2024/02/25 10:13:59;;;;;;;0.65;0.35;;;6.60;83.10;;;;;;5027741;28;20484;-65
2024/02/25 10:16:25;;;;;;;0.25;0.22;;;6.60;83.60;;;;;;5023159;28;20430;-66
2024/02/25 10:18:51;;;;;;;0.57;0.50;;;6.50;83.80;;;;;;5029204;28;20514;-65
2024/02/25 10:21:20;;;;;;;0.40;0.40;;;6.40;84.00;;;;;;5029456;28;20052;-66
2024/02/25 10:23:52;;;;;;;0.50;0.47;;;6.40;85.40;;;;;;5026508;28;20047;-66
2024/02/25 10:26:25;;;;;;;0.57;0.43;;;6.20;84.00;;;;;;5038766;28;20110;-67
2024/02/25 10:29:02;;;;;;;1.27;0.63;;;6.20;84.50;;;;;;5032021;28;20039;-67
2024/02/25 10:31:27;;;;;;;0.65;0.50;;;6.20;84.50;;;;;;5026280;28;20036;-68
2024/02/25 10:33:58;;;;;;;0.55;0.43;;;6.30;84.50;;;;;;5029213;28;20029;-68
2024/02/25 10:36:26;;;;;;;0.80;0.57;;;6.40;85.20;;;;;;5034557;28;20438;-69
2024/02/25 10:38:56;;;;;;;0.93;0.73;;;6.30;85.10;;;;;;5026785;28;20549;-65
2024/02/25 10:41:22;;;;;;;0.57;0.50;;;6.30;84.90;;;;;;5029012;28;20211;-64
2024/02/25 10:43:54;;;;;;;0.70;0.40;;;6.30;85.00;;;;;;5022986;28;20191;-66
2024/02/25 10:46:40;;;;;;;0.60;0.38;;;6.30;85.60;;;;;;5024394;28;20419;-66
2024/02/25 10:49:06;;;;;;;0.30;0.30;;;6.30;85.70;;;;;;5028141;28;20041;-66
2024/02/25 10:51:35;;;;;;;0.38;0.38;;;6.20;86.00;;;;;;5028588;28;20088;-67
2024/02/25 10:54:02;;;;;;;3.38;0.50;;;6.20;85.50;;;;;;5025755;28;20025;-66
2024/02/25 10:56:29;;;;;;;0.95;0.50;;;6.20;85.60;;;;;;5026471;28;20124;-66
2024/02/25 10:58:57;;;;;;;1.15;0.52;;;6.20;86.00;;;;;;5024101;28;20030;-66
2024/02/25 11:01:24;;;;;;;0.65;0.50;;;6.20;85.70;;;;;;5024706;28;20025;-65
2024/02/25 11:03:50;;;;;;;0.40;0.40;;;6.10;85.50;;;;;;5025429;28;20072;-66
2024/02/25 11:06:42;;;;;;;0.52;0.52;;;6.10;85.50;;;;;;5026811;28;20065;-66
2024/02/25 11:09:10;;;;;;;0.38;0.38;;;6.10;85.50;;;;;;5026406;28;20162;-65
2024/02/25 11:11:36;;;;;;;0.40;0.40;;;6.10;86.00;;;;;;5033020;28;20037;-65
2024/02/25 11:14:02;;;;;;;1.10;0.60;;;6.10;85.80;;;;;;5034720;28;20388;-66
2024/02/25 11:16:36;;;;;;;0.55;0.50;;;6.10;86.20;;;;;;5026614;28;20127;-67
2024/02/25 11:19:02;;;;;;;0.40;0.32;;;6.10;86.00;;;;;;5024993;28;20712;-68
2024/02/25 11:21:36;;;;;;;0.43;0.32;;;6.20;85.60;;;;;;5025275;28;20439;-68
2024/02/25 11:24:02;;;;;;;0.55;0.40;;;6.20;86.10;;;;;;5030816;28;20083;-69
2024/02/25 11:26:33;;;;;;;2.05;0.50;;;6.20;86.30;;;;;;5028882;28;20037;-69
2024/02/25 11:29:12;;;;;;;0.40;0.40;;;6.20;87.20;;;;;;5031330;28;20471;-68
2024/02/25 11:31:59;;;;;;;0.40;0.40;;;6.20;87.50;;;;;;5021820;28;20033;-72
2024/02/25 11:34:27;;;;;;;2.08;0.55;;;6.10;87.70;;;;;;5024792;28;20033;-71
2024/02/25 11:36:55;;;;;;;0.60;0.52;;;6.10;88.10;;;;;;5022110;28;20432;-67
2024/02/25 11:39:25;;;;;;;1.00;0.55;;;6.10;88.60;;;;;;5018580;28;20109;-69
2024/02/25 11:41:52;;;;;;;0.83;0.50;;;6.20;88.80;;;;;;5030889;28;20052;-68
2024/02/25 11:44:18;;;;;;;0.30;0.30;;;6.20;88.70;;;;;;5029047;28;20038;-71
2024/02/25 11:46:43;;;;;;;1.02;0.55;;;6.30;88.70;;;;;;5022716;28;20045;-67
2024/02/25 11:49:11;;;;;;;0.70;0.52;;;6.40;88.50;;;;;;5029025;28;20112;-67
2024/02/25 11:51:36;;;;;;;0.35;0.35;;;6.40;87.40;;;;;;5032422;28;20068;-67
2024/02/25 11:54:02;;;;;;;0.50;0.50;;;6.50;87.80;;;;;;5021838;28;20427;-67
2024/02/25 11:56:28;;;;;;;2.38;0.70;;;6.80;87.50;;;;;;5023643;28;20045;-67
2024/02/25 11:58:54;;;;;;;1.10;0.40;;;7.00;86.50;;;;;;5026891;28;20170;-67
2024/02/25 12:01:20;;;;;;;0.85;0.60;;;7.00;84.80;;;;;;5021707;28;20091;-67
2024/02/25 12:03:46;;;;;;;0.63;0.43;;;7.30;83.90;;;;;;5019891;28;20438;-67
2024/02/25 12:06:12;;;;;;;0.50;0.50;;;7.00;83.00;;;;;;5020435;28;20033;-67
2024/02/25 12:08:40;;;;;;;0.57;0.50;;;7.10;83.20;;;;;;5023058;28;20109;-67
2024/02/25 12:11:07;;;;;;;0.50;0.45;;;7.10;82.30;;;;;;5017161;28;20121;-68
2024/02/25 12:13:33;;;;;;;2.65;0.90;;;7.00;82.60;;;;;;5025399;28;20132;-67
2024/02/25 12:15:58;;;;;;;0.82;0.43;;;7.00;83.30;;;;;;5022699;28;20112;-68
2024/02/25 12:18:24;;;;;;;0.60;0.50;;;6.90;83.10;;;;;;5023742;28;20085;-67
2024/02/25 12:20:51;;;;;;;0.40;0.40;;;6.90;83.40;;;;;;5027569;28;20029;-67
2024/02/25 12:23:18;;;;;;;0.88;0.60;;;7.00;84.30;;;;;;5023142;28;20474;-68
2024/02/25 12:25:44;;;;;;;0.80;0.50;;;7.10;83.30;;;;;;5023524;28;20073;-68
2024/02/25 12:28:11;;;;;;;0.47;0.45;;;7.10;82.40;;;;;;5019828;28;20471;-68
2024/02/25 12:30:42;;;;;;;0.55;0.50;;;7.10;82.50;;;;;;5023572;28;20071;-69
2024/02/25 12:33:08;;;;;;;0.80;0.50;;;7.00;82.50;;;;;;5032914;28;20048;-67
2024/02/25 12:35:38;;;;;;;0.40;0.40;;;7.00;83.10;;;;;;5025954;28;20191;-69
2024/02/25 12:38:04;;;;;;;0.85;0.50;;;7.00;82.30;;;;;;5025072;28;20025;-67
2024/02/25 12:40:33;;;;;;;1.58;0.40;;;6.90;82.30;;;;;;5039193;28;20033;-67
2024/02/25 12:42:59;;;;;;;1.27;0.75;;;6.90;82.10;;;;;;5023438;28;20376;-67
2024/02/25 12:45:26;;;;;;;0.40;0.30;;;6.90;82.90;;;;;;5030007;28;20133;-67
2024/02/25 12:47:53;;;;;;;0.32;0.32;;;6.80;83.10;;;;;;5024483;28;20040;-66
2024/02/25 12:50:19;;;;;;;0.75;0.40;;;6.80;83.50;;;;;;5028241;28;20026;-66
2024/02/25 12:52:45;;;;;;;0.30;0.30;;;6.60;85.10;;;;;;5023001;28;20486;-66